Time;durP1;ratioP1;P1;durP2;ratioP2;P2;SDS_P1;SDS_P2;PMS_P1;PMS_P2;Temp;Humidity;BMP_temperature;BMP_pressure;BME280_temperature;BME280_humidity;BME280_pressure;Samples;Min_cycle;Max_cycle;Signal;HPM_P1;HPM_P2
2022/03/19 00:04:17;;;;;;;0.35;0.35;;;;;;;20.17;31.35;104384.63;10532314;28;20483;-81
2022/03/19 00:09:21;;;;;;;0.40;0.38;;;;;;;19.63;32.47;104371.84;10531963;28;20449;-83
2022/03/19 00:14:24;;;;;;;2.22;1.38;;;;;;;20.03;31.90;104368.31;10537384;28;20085;-82
2022/03/19 00:19:29;;;;;;;0.30;0.30;;;;;;;19.68;32.42;104369.44;10501376;28;20070;-81
2022/03/19 00:24:35;;;;;;;0.00;0.00;;;;;;;20.65;31.33;104369.94;10527915;28;20044;-82
2022/03/19 00:29:39;;;;;;;0.00;0.00;;;;;;;19.39;33.21;104380.41;10520484;28;20040;-82
2022/03/19 00:34:41;;;;;;;1.10;1.08;;;;;;;19.86;32.68;104378.09;10536714;28;20123;-82
2022/03/19 00:39:42;;;;;;;0.75;0.75;;;;;;;19.11;34.08;104375.63;10519370;28;20042;-82
2022/03/19 00:44:44;;;;;;;2.17;0.50;;;;;;;18.96;34.28;104376.72;10550907;28;20052;-81
2022/03/19 00:49:46;;;;;;;2.60;0.25;;;;;;;20.12;31.95;104373.06;10536055;28;20089;-82
2022/03/19 00:54:47;;;;;;;8.45;2.33;;;;;;;18.92;34.25;104366.03;10513132;28;20067;-82
2022/03/19 00:59:49;;;;;;;0.00;0.00;;;;;;;19.54;33.01;104356.66;10529283;28;20123;-83
2022/03/19 01:04:50;;;;;;;0.15;0.15;;;;;;;20.45;31.14;104356.91;10515501;28;20051;-82
2022/03/19 01:09:52;;;;;;;0.00;0.00;;;;;;;20.81;30.79;104358.34;10512148;28;20130;-82
2022/03/19 01:14:53;;;;;;;0.00;0.00;;;;;;;20.05;31.84;104355.31;10534716;28;20044;-82
2022/03/19 01:19:58;;;;;;;0.85;0.57;;;;;;;19.24;33.29;104351.88;10531047;28;20050;-83
2022/03/19 01:25:03;;;;;;;0.20;0.20;;;;;;;19.76;32.38;104347.13;10528769;28;20036;-81
2022/03/19 01:30:06;;;;;;;0.10;0.10;;;;;;;20.24;31.47;104349.13;10531029;28;20058;-82
2022/03/19 01:35:10;;;;;;;0.25;0.25;;;;;;;20.24;31.51;104342.16;10533930;28;20480;-82
2022/03/19 01:40:13;;;;;;;0.00;0.00;;;;;;;21.15;29.87;104336.03;10532866;28;20040;-82
2022/03/19 01:45:19;;;;;;;0.10;0.10;;;;;;;19.60;32.19;104346.47;10525544;28;20047;-82
2022/03/19 01:50:24;;;;;;;0.10;0.10;;;;;;;20.31;31.05;104345.00;10532638;28;20045;-82
2022/03/19 01:55:27;;;;;;;0.00;0.00;;;;;;;19.96;31.53;104346.25;10529789;28;20127;-82
2022/03/19 02:00:29;;;;;;;0.03;0.03;;;;;;;19.21;32.64;104343.88;10536705;28;20143;-82
2022/03/19 02:05:31;;;;;;;0.00;0.00;;;;;;;18.86;33.30;104353.59;10548695;28;20075;-82
2022/03/19 02:10:34;;;;;;;2.17;1.58;;;;;;;18.66;34.08;104345.69;10508318;28;20407;-82
2022/03/19 02:15:37;;;;;;;0.05;0.03;;;;;;;18.84;33.64;104350.00;10539478;28;20040;-82
2022/03/19 02:20:39;;;;;;;0.28;0.13;;;;;;;19.17;33.16;104344.56;10531394;28;20514;-82
2022/03/19 02:25:46;;;;;;;0.52;0.52;;;;;;;19.47;32.14;104328.44;10511041;28;20043;-82
2022/03/19 02:30:48;;;;;;;0.90;0.90;;;;;;;19.72;32.39;104324.25;10528314;28;20434;-83
2022/03/19 02:35:49;;;;;;;2.00;1.13;;;;;;;18.94;33.42;104325.22;10515851;28;20126;-83
2022/03/19 02:40:51;;;;;;;0.20;0.20;;;;;;;19.15;32.65;104317.47;10511845;28;20091;-82
2022/03/19 02:45:53;;;;;;;0.35;0.20;;;;;;;18.44;34.14;104311.56;10528980;28;20479;-83
2022/03/19 02:50:54;;;;;;;0.00;0.00;;;;;;;20.38;30.67;104300.81;10513341;28;20394;-82
2022/03/19 02:55:56;;;;;;;3.10;1.35;;;;;;;18.07;34.61;104305.47;10532716;28;20081;-82
2022/03/19 03:00:58;;;;;;;0.10;0.10;;;;;;;19.28;32.26;104300.63;10530733;28;20047;-82
2022/03/19 03:06:00;;;;;;;0.00;0.00;;;;;;;19.18;32.53;104296.69;10509461;28;20130;-82
2022/03/19 03:11:01;;;;;;;0.00;0.00;;;;;;;19.46;31.51;104292.66;10528970;28;20123;-82
2022/03/19 03:16:04;;;;;;;0.00;0.00;;;;;;;19.18;32.54;104286.22;10495983;28;20036;-82
2022/03/19 03:21:06;;;;;;;0.00;0.00;;;;;;;19.49;31.05;104284.94;10514529;28;20048;-83
2022/03/19 03:26:08;;;;;;;0.40;0.40;;;;;;;18.99;32.54;104288.03;10514895;28;20040;-82
2022/03/19 03:31:09;;;;;;;0.00;0.00;;;;;;;19.21;31.95;104283.75;10531954;28;20048;-82
2022/03/19 03:36:11;;;;;;;0.00;0.00;;;;;;;20.31;30.94;104282.16;10523148;28;20518;-82
2022/03/19 03:41:13;;;;;;;0.10;0.10;;;;;;;19.23;31.55;104276.88;10541090;28;20052;-82
2022/03/19 03:46:14;;;;;;;0.00;0.00;;;;;;;19.55;31.10;104281.69;10539761;28;20044;-82
2022/03/19 03:51:17;;;;;;;0.00;0.00;;;;;;;19.70;31.13;104277.13;10540728;28;20149;-82
2022/03/19 03:56:18;;;;;;;0.00;0.00;;;;;;;19.36;32.06;104266.94;10540569;28;20068;-82
2022/03/19 04:01:20;;;;;;;0.10;0.10;;;;;;;18.79;32.62;104267.94;10540109;28;20052;-82
2022/03/19 04:06:22;;;;;;;0.00;0.00;;;;;;;19.85;31.00;104269.03;10540651;28;20078;-82
2022/03/19 04:11:23;;;;;;;0.00;0.00;;;;;;;19.28;32.20;104258.78;10511668;28;20117;-82
2022/03/19 04:16:25;;;;;;;0.30;0.20;;;;;;;18.83;32.01;104259.38;10539332;28;20089;-82
2022/03/19 04:21:27;;;;;;;0.00;0.00;;;;;;;19.23;31.59;104255.06;10539401;28;20044;-82
2022/03/19 04:26:28;;;;;;;1.30;1.25;;;;;;;21.69;27.29;104246.09;10520799;28;20086;-81
2022/03/19 04:31:30;;;;;;;0.00;0.00;;;;;;;20.38;29.05;104258.00;10539393;28;20126;-81
2022/03/19 04:36:38;;;;;;;0.32;0.28;;;;;;;19.44;30.86;104255.09;10539097;28;20115;-81
2022/03/19 04:41:40;;;;;;;0.00;0.00;;;;;;;19.69;30.04;104258.75;10538707;28;20466;-82
2022/03/19 04:46:42;;;;;;;0.20;0.20;;;;;;;18.36;32.17;104262.47;10538728;28;20132;-82
2022/03/19 04:51:44;;;;;;;0.00;0.00;;;;;;;19.56;30.67;104255.59;10520223;28;20445;-82
2022/03/19 04:56:45;;;;;;;0.00;0.00;;;;;;;19.73;29.78;104260.66;10537952;28;20040;-82
2022/03/19 05:01:48;;;;;;;0.00;0.00;;;;;;;18.19;32.70;104264.31;10519562;28;20507;-81
2022/03/19 05:06:50;;;;;;;6.25;2.22;;;;;;;18.11;32.34;104277.81;10519129;28;20103;-82
2022/03/19 05:11:51;;;;;;;0.38;0.38;;;;;;;17.83;32.73;104279.03;10519634;28;20046;-82
2022/03/19 05:16:53;;;;;;;0.20;0.20;;;;;;;17.91;32.89;104278.59;10536263;28;20117;-82
2022/03/19 05:21:55;;;;;;;0.00;0.00;;;;;;;18.61;31.47;104281.91;10536192;28;20130;-81
2022/03/19 05:26:57;;;;;;;5.63;1.95;;;;;;;17.36;33.24;104284.53;10519282;28;20040;-82
2022/03/19 05:31:58;;;;;;;0.95;0.28;;;;;;;17.51;33.44;104288.75;10518348;28;20485;-82
2022/03/19 05:37:03;;;;;;;0.17;0.17;;;;;;;17.77;32.87;104285.72;10518506;28;20040;-81
2022/03/19 05:42:05;;;;;;;0.40;0.22;;;;;;;17.69;33.46;104284.44;10536692;28;20079;-81
2022/03/19 05:47:06;;;;;;;0.93;0.85;;;;;;;18.32;32.02;104296.19;10534977;28;20036;-81
2022/03/19 05:52:08;;;;;;;1.08;0.98;;;;;;;16.90;34.68;104292.47;10535722;28;20388;-82
2022/03/19 05:57:10;;;;;;;0.40;0.32;;;;;;;17.41;33.65;104289.97;10535014;28;20087;-81
2022/03/19 06:02:11;;;;;;;2.22;1.05;;;;;;;17.35;33.86;104294.88;10515597;28;20154;-81
2022/03/19 06:07:13;;;;;;;0.73;0.60;;;;;;;17.87;33.21;104286.19;10535626;28;20034;-82
2022/03/19 06:12:14;;;;;;;0.55;0.55;;;;;;;18.08;32.31;104289.88;10534973;28;20497;-81
2022/03/19 06:17:16;;;;;;;0.55;0.55;;;;;;;18.46;32.11;104291.66;10516499;28;20382;-82
2022/03/19 06:22:18;;;;;;;0.38;0.38;;;;;;;17.30;34.28;104294.63;10516894;28;20051;-81
2022/03/19 06:27:20;;;;;;;0.70;0.70;;;;;;;17.93;32.98;104283.88;10517929;28;20036;-81
2022/03/19 06:32:21;;;;;;;0.40;0.40;;;;;;;18.65;31.84;104276.00;10534266;28;20047;-82
2022/03/19 06:37:23;;;;;;;0.63;0.20;;;;;;;18.43;32.07;104278.47;10516358;28;20109;-81
2022/03/19 06:42:25;;;;;;;1.48;0.93;;;;;;;17.88;32.98;104282.75;10515709;28;20093;-80
2022/03/19 06:47:26;;;;;;;0.17;0.17;;;;;;;18.38;32.66;104276.50;10533796;28;20483;-80
2022/03/19 06:52:29;;;;;;;4.90;0.77;;;;;;;18.15;32.60;104271.91;10511578;28;20051;-81
2022/03/19 06:57:30;;;;;;;0.10;0.10;;;;;;;18.09;33.08;104277.75;10510383;28;20052;-81
2022/03/19 07:02:32;;;;;;;2.97;2.22;;;;;;;17.50;34.33;104273.91;10527717;28;20087;-81
2022/03/19 07:07:33;;;;;;;0.65;0.52;;;;;;;19.07;31.81;104269.19;10526398;28;20594;-82
2022/03/19 07:12:43;;;;;;;0.00;0.00;;;;;;;19.80;30.72;104275.75;10508561;28;20046;-82
2022/03/19 07:17:46;;;;;;;14.40;0.77;;;;;;;20.01;30.62;104283.63;10521972;28;20062;-82
2022/03/19 07:22:55;;;;;;;0.13;0.13;;;;;;;20.91;29.67;104268.75;10508855;28;20134;-81
2022/03/19 07:28:01;;;;;;;0.70;0.45;;;;;;;20.31;29.86;104269.97;10510234;28;20505;-81
2022/03/19 07:33:03;;;;;;;1.10;0.20;;;;;;;21.55;28.36;104264.88;10529717;28;20148;-82
2022/03/19 07:38:06;;;;;;;2.28;1.30;;;;;;;20.37;29.66;104264.06;10527273;28;20048;-82
2022/03/19 07:43:09;;;;;;;11.60;2.33;;;;;;;19.85;29.58;104270.75;10528824;28;20528;-84
2022/03/19 07:48:11;;;;;;;0.38;0.38;;;;;;;21.82;28.16;104266.63;10526999;28;20120;-82
2022/03/19 07:53:27;;;;;;;0.70;0.65;;;;;;;21.57;27.93;104267.56;10527116;28;20491;-81
2022/03/19 07:58:31;;;;;;;1.27;0.57;;;;;;;22.17;26.38;104253.72;10530323;28;20040;-81
2022/03/19 08:03:33;;;;;;;0.63;0.45;;;;;;;20.94;28.09;104268.84;10540356;28;20135;-81
2022/03/19 08:08:38;;;;;;;0.47;0.38;;;;;;;22.70;25.89;104252.66;10529476;28;20110;-82
2022/03/19 08:13:39;;;;;;;0.20;0.05;;;;;;;23.03;24.60;104250.91;10531711;28;20131;-81
2022/03/19 08:18:41;;;;;;;2.80;1.75;;;;;;;22.29;25.13;104250.56;10509920;28;20044;-82
2022/03/19 08:23:43;;;;;;;0.32;0.32;;;;;;;23.04;24.26;104248.34;10519006;28;20048;-81
2022/03/19 08:28:45;;;;;;;0.10;0.10;;;;;;;23.77;23.67;104258.06;10520453;28;20115;-80
2022/03/19 08:33:48;;;;;;;0.00;0.00;;;;;;;23.44;23.31;104252.03;10535246;28;20035;-81
2022/03/19 08:44:11;;;;;;;1.45;0.65;;;;;;;22.41;23.17;104255.34;10538438;28;20606;-81
2022/03/19 08:49:13;;;;;;;0.32;0.20;;;;;;;24.60;21.34;104237.97;10520919;28;20036;-81
2022/03/19 08:54:17;;;;;;;0.47;0.25;;;;;;;23.16;22.03;104247.75;10538396;28;20036;-80
2022/03/19 08:59:20;;;;;;;0.40;0.40;;;;;;;22.87;23.31;104252.25;10537462;28;20048;-81
2022/03/19 09:04:22;;;;;;;0.15;0.15;;;;;;;23.16;21.40;104257.41;10531494;28;20048;-83
2022/03/19 09:09:24;;;;;;;9.38;0.88;;;;;;;22.79;21.28;104249.38;10519948;28;20047;-83
2022/03/19 09:14:27;;;;;;;9.90;1.52;;;;;;;22.92;21.56;104242.72;10519833;28;20529;-81
2022/03/19 09:19:28;;;;;;;0.10;0.10;;;;;;;25.37;20.10;104235.84;10519752;28;20081;-81
2022/03/19 09:24:30;;;;;;;0.65;0.32;;;;;;;24.64;18.83;104239.78;10519015;28;20915;-88
2022/03/19 09:29:32;;;;;;;0.75;0.22;;;;;;;24.96;19.76;104234.28;10535893;28;20449;-82
2022/03/19 09:34:35;;;;;;;0.63;0.25;;;;;;;24.68;20.03;104230.22;10516974;28;20048;-81
2022/03/19 09:39:37;;;;;;;0.32;0.22;;;;;;;23.72;20.31;104244.78;10529123;28;20101;-81
2022/03/19 09:44:44;;;;;;;0.30;0.20;;;;;;;25.15;18.62;104210.84;10529357;28;20040;-81
2022/03/19 09:49:46;;;;;;;0.47;0.40;;;;;;;24.23;20.08;104201.19;10525979;28;20052;-81
2022/03/19 09:54:48;;;;;;;0.25;0.25;;;;;;;25.64;18.79;104214.31;10509038;28;20422;-80
2022/03/19 09:59:49;;;;;;;0.93;0.50;;;;;;;26.17;17.44;104193.94;10536454;28;20505;-81
2022/03/19 10:04:57;;;;;;;0.00;0.00;;;;;;;26.15;17.16;104193.03;10536042;28;20040;-81
2022/03/19 10:10:00;;;;;;;4.47;0.40;;;;;;;26.19;16.67;104181.59;10530855;28;20071;-81
2022/03/19 10:15:09;;;;;;;0.15;0.13;;;;;;;24.85;16.81;104181.34;10506205;28;20495;-81
2022/03/19 10:20:13;;;;;;;0.15;0.15;;;;;;;26.54;17.75;104175.84;10535289;28;20032;-78
2022/03/19 10:25:18;;;;;;;0.00;0.00;;;;;;;26.13;17.00;104168.31;10540950;28;20126;-76
2022/03/19 10:30:20;;;;;;;0.43;0.13;;;;;;;24.27;17.61;104170.53;10540148;28;20123;-76
2022/03/19 10:35:33;;;;;;;1.75;0.47;;;;;;;26.03;16.25;104151.44;10539549;28;20036;-75
2022/03/19 10:40:43;;;;;;;1.10;0.70;;;;;;;26.52;16.39;104145.84;10522203;28;20048;-78
2022/03/19 10:45:49;;;;;;;7.80;0.20;;;;;;;26.53;16.32;104147.63;10539446;28;20451;-76
2022/03/19 10:50:52;;;;;;;0.00;0.00;;;;;;;26.62;16.54;104140.66;10536284;28;20068;-76
2022/03/19 10:55:54;;;;;;;0.13;0.13;;;;;;;26.19;14.71;104135.81;10537125;28;20047;-76
2022/03/19 11:00:59;;;;;;;0.20;0.13;;;;;;;25.57;15.36;104127.97;10538490;28;20395;-78
2022/03/19 11:06:09;;;;;;;1.15;0.38;;;;;;;25.58;15.67;104120.94;10554324;28;20105;-77
2022/03/19 11:11:39;;;;;;;0.10;0.05;;;;;;;25.06;15.73;104108.72;10537564;28;20044;-78
2022/03/19 11:16:42;;;;;;;0.25;0.10;;;;;;;25.89;15.67;104097.56;10519804;28;20044;-75
2022/03/19 11:21:43;;;;;;;0.38;0.15;;;;;;;26.77;15.18;104085.25;10536559;28;20434;-77
2022/03/19 11:26:47;;;;;;;0.08;0.08;;;;;;;25.63;15.90;104077.91;10538208;28;20094;-75
2022/03/19 11:31:58;;;;;;;1.42;0.50;;;;;;;24.43;15.84;104065.44;10538009;28;20093;-75
2022/03/19 11:37:04;;;;;;;1.33;0.50;;;;;;;25.53;15.94;104068.06;10520110;28;20509;-76
2022/03/19 11:42:07;;;;;;;1.80;0.63;;;;;;;24.32;15.95;104063.47;10536828;28;20574;-75
2022/03/19 11:47:10;;;;;;;2.83;0.50;;;;;;;26.30;15.45;104039.00;10535993;28;20044;-76
2022/03/19 11:52:37;;;;;;;2.90;0.85;;;;;;;23.88;15.98;104042.41;10538194;28;20563;-78
2022/03/19 11:58:00;;;;;;;0.55;0.28;;;;;;;26.25;14.71;104033.69;10500344;28;20044;-76
2022/03/19 12:03:06;;;;;;;0.00;0.00;;;;;;;27.82;15.04;104018.78;10560641;28;20036;-77
2022/03/19 12:08:14;;;;;;;0.60;0.28;;;;;;;24.22;15.63;104014.13;10545634;28;20044;-77
2022/03/19 12:13:28;;;;;;;0.73;0.43;;;;;;;26.17;15.83;104000.13;10543392;28;20072;-77
2022/03/19 12:18:47;;;;;;;0.25;0.25;;;;;;;28.32;14.02;103978.22;10529725;28;20106;-75
2022/03/19 12:24:11;;;;;;;0.03;0.03;;;;;;;24.92;15.33;103986.28;10534701;28;20127;-76
2022/03/19 12:29:15;;;;;;;0.20;0.13;;;;;;;25.65;14.37;103970.53;10526853;28;20112;-78
2022/03/19 12:34:19;;;;;;;0.40;0.13;;;;;;;26.96;16.41;103951.38;10536065;28;20635;-80
2022/03/19 12:39:21;;;;;;;0.10;0.10;;;;;;;25.79;16.05;103956.63;10544992;28;20534;-78
2022/03/19 12:44:28;;;;;;;2.58;0.75;;;;;;;24.49;15.97;103939.03;10542886;28;20398;-75
2022/03/19 12:49:33;;;;;;;0.10;0.10;;;;;;;27.01;15.07;103917.00;10531311;28;20032;-76
2022/03/19 12:54:42;;;;;;;0.15;0.10;;;;;;;24.37;15.12;103921.28;10542197;28;20399;-78
2022/03/19 12:59:48;;;;;;;0.95;0.13;;;;;;;26.25;14.99;103903.31;10546937;28;20047;-77
2022/03/19 13:04:50;;;;;;;0.25;0.08;;;;;;;25.91;15.60;103906.53;10529125;28;20055;-77
2022/03/19 13:09:53;;;;;;;0.20;0.20;;;;;;;26.87;15.66;103880.78;10503226;28;20072;-76
2022/03/19 13:14:56;;;;;;;2.28;0.32;;;;;;;25.53;14.60;103885.06;10513388;28;20044;-76
2022/03/19 13:20:06;;;;;;;0.00;0.00;;;;;;;25.64;15.64;103873.75;10510567;28;20052;-78
2022/03/19 13:25:08;;;;;;;0.32;0.05;;;;;;;25.13;15.09;103859.09;10510708;28;20463;-77
2022/03/19 13:30:14;;;;;;;0.00;0.00;;;;;;;25.34;14.38;103854.06;10524617;28;20037;-76
2022/03/19 13:35:34;;;;;;;3.20;0.68;;;;;;;24.56;14.39;103843.38;10539623;28;20044;-77
2022/03/19 13:40:37;;;;;;;0.35;0.00;;;;;;;26.06;14.07;103825.66;10521563;28;20390;-77
2022/03/19 13:45:39;;;;;;;0.10;0.10;;;;;;;25.92;14.06;103810.59;10528516;28;20032;-75
2022/03/19 13:50:58;;;;;;;1.20;0.45;;;;;;;24.05;15.52;103811.06;10542097;28;20062;-77
2022/03/19 13:56:00;;;;;;;0.00;0.00;;;;;;;24.73;15.04;103806.72;10555767;28;20095;-76
2022/03/19 14:01:15;;;;;;;0.98;0.45;;;;;;;23.90;14.60;103802.00;10532281;28;20119;-79
2022/03/19 14:06:17;;;;;;;0.98;0.35;;;;;;;23.64;14.46;103804.22;10545361;28;20044;-79
2022/03/19 14:11:19;;;;;;;1.38;0.20;;;;;;;24.10;14.66;103788.31;10512158;28;20045;-78
2022/03/19 14:16:21;;;;;;;0.20;0.20;;;;;;;23.85;15.48;103784.38;10539243;28;20105;-77
2022/03/19 14:21:23;;;;;;;0.00;0.00;;;;;;;24.22;14.88;103777.06;10534969;28;20044;-76
2022/03/19 14:26:30;;;;;;;0.00;0.00;;;;;;;24.57;14.34;103776.63;10530797;28;20044;-76
2022/03/19 14:31:31;;;;;;;2.47;0.28;;;;;;;24.17;15.74;103758.56;10542616;28;20125;-75
2022/03/19 14:36:33;;;;;;;6.70;0.43;;;;;;;23.66;15.07;103755.09;10521288;28;20135;-78
2022/03/19 14:41:36;;;;;;;0.93;0.13;;;;;;;24.37;15.21;103748.28;10519516;28;20549;-78
2022/03/19 14:46:37;;;;;;;0.20;0.20;;;;;;;24.78;14.57;103723.31;10504731;28;20101;-80
2022/03/19 14:51:40;;;;;;;0.08;0.05;;;;;;;24.60;16.95;103721.34;10514901;28;20052;-78
2022/03/19 14:56:43;;;;;;;0.08;0.08;;;;;;;23.47;16.08;103716.22;10523264;28;20068;-79
2022/03/19 15:01:45;;;;;;;1.20;0.57;;;;;;;23.36;16.78;103709.00;10538477;28;20109;-78
2022/03/19 15:06:51;;;;;;;0.10;0.10;;;;;;;24.19;16.33;103717.31;10539015;28;20047;-78
2022/03/19 15:11:53;;;;;;;0.80;0.40;;;;;;;24.05;16.30;103711.84;10520519;28;20451;-80
2022/03/19 15:17:24;;;;;;;1.15;0.57;;;;;;;22.47;17.29;103719.59;10537766;28;20040;-77
2022/03/19 15:22:25;;;;;;;;;;;;;;;22.79;17.26;103722.00;10538102;28;20131;-84
2022/03/19 15:27:27;;;;;;;0.65;0.40;;;;;;;22.85;16.42;103715.06;10516902;28;19920;-78
2022/03/19 15:32:38;;;;;;;4.30;0.68;;;;;;;22.96;17.17;103718.81;10537499;28;20059;-76
2022/03/19 15:37:41;;;;;;;0.00;0.00;;;;;;;23.63;17.49;103701.53;10509655;28;20086;-76
2022/03/19 15:42:42;;;;;;;0.00;0.00;;;;;;;24.00;17.28;103708.28;10490548;28;20048;-78
2022/03/19 15:47:44;;;;;;;2.85;0.70;;;;;;;21.82;18.36;103712.88;10563256;28;20999;-78
2022/03/19 15:52:46;;;;;;;0.00;0.00;;;;;;;24.22;16.56;103698.03;10542455;28;20437;-77
2022/03/19 15:57:52;;;;;;;0.10;0.10;;;;;;;23.25;18.33;103689.53;10548047;28;20036;-76
2022/03/19 16:02:54;;;;;;;0.43;0.30;;;;;;;22.43;18.46;103688.88;10545623;28;20064;-78
2022/03/19 16:07:56;;;;;;;0.00;0.00;;;;;;;22.76;18.31;103671.09;10550062;28;20398;-77
2022/03/19 16:12:58;;;;;;;4.90;1.17;;;;;;;22.95;18.14;103681.09;10530341;28;20188;-77
2022/03/19 16:17:59;;;;;;;0.38;0.20;;;;;;;22.72;18.50;103678.06;10549689;28;20115;-77
2022/03/19 16:23:01;;;;;;;0.43;0.43;;;;;;;23.70;17.86;103667.47;10522776;28;20072;-77
2022/03/19 16:28:04;;;;;;;0.63;0.08;;;;;;;24.79;17.43;103658.28;10532450;28;20054;-77
2022/03/19 16:33:05;;;;;;;0.38;0.10;;;;;;;22.26;19.41;103662.22;10544734;28;20044;-78
2022/03/19 16:38:07;;;;;;;0.00;0.00;;;;;;;22.91;18.46;103653.00;10527776;28;20052;-78
2022/03/19 16:43:15;;;;;;;0.00;0.00;;;;;;;23.81;18.35;103638.66;10521440;28;20443;-77
2022/03/19 16:48:16;;;;;;;0.20;0.20;;;;;;;23.93;18.12;103640.59;10543976;28;20482;-77
2022/03/19 16:53:18;;;;;;;0.10;0.00;;;;;;;23.06;18.68;103640.97;10516364;28;20542;-76
2022/03/19 16:58:19;;;;;;;0.00;0.00;;;;;;;22.41;19.15;103635.41;10533603;28;20119;-76
2022/03/19 17:03:21;;;;;;;6.72;0.60;;;;;;;21.67;19.55;103633.81;10530283;28;20083;-77
2022/03/19 17:08:23;;;;;;;0.00;0.00;;;;;;;23.58;18.30;103643.56;10540996;28;20043;-74
2022/03/19 17:13:25;;;;;;;0.98;0.20;;;;;;;22.92;18.91;103638.09;10521761;28;20132;-76
2022/03/19 17:18:26;;;;;;;0.65;0.30;;;;;;;21.61;19.69;103645.03;10540526;28;20115;-77
2022/03/19 17:23:28;;;;;;;0.00;0.00;;;;;;;22.43;19.50;103636.34;10539815;28;20558;-77
2022/03/19 17:28:30;;;;;;;0.47;0.47;;;;;;;21.87;20.16;103631.63;10539423;28;20044;-76
2022/03/19 17:33:31;;;;;;;1.73;0.30;;;;;;;21.40;20.12;103634.91;10541172;28;20123;-77
2022/03/19 17:38:35;;;;;;;2.17;0.38;;;;;;;22.05;19.56;103632.88;10540662;28;20048;-77
2022/03/19 17:43:37;;;;;;;1.65;0.10;;;;;;;21.65;19.85;103630.25;10523308;28;20071;-78
2022/03/19 17:48:39;;;;;;;0.38;0.30;;;;;;;21.87;20.00;103632.50;10542034;28;20127;-77
2022/03/19 17:53:41;;;;;;;0.00;0.00;;;;;;;22.43;19.52;103624.94;10523133;28;20079;-77
2022/03/19 17:58:42;;;;;;;0.00;0.00;;;;;;;21.51;20.41;103627.31;10522153;28;20059;-77
2022/03/19 18:03:44;;;;;;;0.00;0.00;;;;;;;21.74;20.02;103626.97;10535575;28;20040;-76
2022/03/19 18:08:46;;;;;;;0.20;0.15;;;;;;;21.55;19.84;103626.50;10523439;28;20506;-77
2022/03/19 18:13:48;;;;;;;0.00;0.00;;;;;;;22.24;19.48;103623.63;10540352;28;20467;-77
2022/03/19 18:18:50;;;;;;;0.00;0.00;;;;;;;22.07;19.59;103637.31;10541715;28;20036;-76
2022/03/19 18:23:51;;;;;;;0.00;0.00;;;;;;;22.87;18.97;103618.75;10540832;28;20503;-76
2022/03/19 18:35:53;;;;;;;0.17;0.00;;;;;;;21.26;20.25;103631.06;10562785;28;20023;-77
2022/03/19 18:40:54;;;;;;;0.40;0.40;;;;;;;21.81;20.06;103632.38;10583227;28;20048;-76
2022/03/19 18:45:56;;;;;;;0.00;0.00;;;;;;;21.44;20.42;103631.50;10560566;28;20048;-76
2022/03/19 18:50:58;;;;;;;0.00;0.00;;;;;;;21.53;20.76;103629.09;10540799;28;20032;-76
2022/03/19 18:55:59;;;;;;;0.00;0.00;;;;;;;20.35;21.29;103632.13;10540423;28;20040;-78
2022/03/19 19:01:01;;;;;;;1.67;1.55;;;;;;;20.73;20.92;103616.63;10540476;28;20115;-75
2022/03/19 19:06:05;;;;;;;0.22;0.10;;;;;;;20.71;20.73;103618.28;10538797;28;20142;-76
2022/03/19 19:11:07;;;;;;;0.20;0.20;;;;;;;19.92;21.19;103616.91;10540195;28;20063;-76
2022/03/19 19:16:08;;;;;;;0.00;0.00;;;;;;;20.48;21.42;103621.16;10527074;28;20127;-76
2022/03/19 19:21:11;;;;;;;0.00;0.00;;;;;;;20.09;21.47;103613.94;10521949;28;20065;-76
2022/03/19 19:26:13;;;;;;;0.00;0.00;;;;;;;20.33;21.36;103612.88;10522052;28;20040;-75
2022/03/19 19:31:17;;;;;;;0.00;0.00;;;;;;;20.39;21.10;103613.94;10539773;28;20118;-76
2022/03/19 19:36:22;;;;;;;0.30;0.30;;;;;;;20.58;20.91;103610.09;10539807;28;20483;-76
2022/03/19 19:41:24;;;;;;;0.65;0.43;;;;;;;20.25;21.45;103603.06;10539509;28;20067;-76
2022/03/19 19:46:25;;;;;;;0.00;0.00;;;;;;;20.65;21.00;103599.78;10555160;28;20076;-76
2022/03/19 19:51:27;;;;;;;0.00;0.00;;;;;;;21.02;20.55;103595.53;10555103;28;20067;-77
2022/03/19 19:57:56;;;;;;;0.00;0.00;;;;;;;20.93;20.21;103598.78;10539943;28;20139;-76
2022/03/19 20:01:50;;;;;;;0.00;0.00;;;;;;;20.40;20.64;103592.13;10521259;28;20086;-75
2022/03/19 20:12:17;;;;;;;0.00;0.00;;;;;;;20.49;21.33;103588.88;10539026;28;20039;-75
2022/03/19 20:17:19;;;;;;;0.10;0.10;;;;;;;19.39;22.31;103593.47;10542852;28;20036;-75
2022/03/19 20:22:22;;;;;;;0.00;0.00;;;;;;;20.21;22.05;103577.66;10511912;28;20091;-77
2022/03/19 20:27:25;;;;;;;0.00;0.00;;;;;;;19.50;22.64;103571.19;10546411;28;20055;-76
2022/03/19 20:32:27;;;;;;;0.00;0.00;;;;;;;19.81;22.33;103571.22;10512630;28;20127;-76
2022/03/19 20:37:29;;;;;;;0.00;0.00;;;;;;;19.36;22.59;103563.72;10499526;28;20044;-77
2022/03/19 20:42:30;;;;;;;0.00;0.00;;;;;;;19.32;23.11;103566.22;10545561;28;20098;-77
2022/03/19 20:47:34;;;;;;;0.30;0.30;;;;;;;19.23;23.28;103560.72;10545336;28;20090;-77
2022/03/19 20:52:35;;;;;;;0.10;0.10;;;;;;;19.84;22.99;103566.13;10527263;28;20122;-77
2022/03/19 20:57:38;;;;;;;0.00;0.00;;;;;;;19.53;22.75;103554.69;10545097;28;20043;-78
2022/03/19 21:02:41;;;;;;;0.05;0.05;;;;;;;19.84;22.52;103550.44;10544888;28;20043;-76
2022/03/19 21:07:45;;;;;;;0.00;0.00;;;;;;;20.31;22.38;103541.25;10510114;28;20048;-77
2022/03/19 21:12:49;;;;;;;0.00;0.00;;;;;;;19.30;23.36;103536.56;10544738;28;20122;-77
2022/03/19 21:17:52;;;;;;;0.00;0.00;;;;;;;19.00;23.46;103526.91;10523588;28;20051;-77
2022/03/19 21:22:55;;;;;;;0.00;0.00;;;;;;;19.26;23.33;103519.00;10525870;28;20040;-76
2022/03/19 21:27:57;;;;;;;0.20;0.20;;;;;;;19.61;23.10;103521.81;10544027;28;20040;-76
2022/03/19 21:32:59;;;;;;;0.00;0.00;;;;;;;18.91;23.75;103515.25;10543954;28;20048;-76
2022/03/19 21:38:00;;;;;;;0.00;0.00;;;;;;;19.35;23.10;103513.19;10543712;28;20076;-77
2022/03/19 21:43:04;;;;;;;0.00;0.00;;;;;;;19.10;23.20;103503.69;10525431;28;20116;-76
2022/03/19 21:48:07;;;;;;;0.00;0.00;;;;;;;20.31;22.66;103486.25;10525084;28;20557;-76
2022/03/19 21:53:09;;;;;;;0.00;0.00;;;;;;;19.52;23.43;103495.41;10525135;28;20117;-76
2022/03/19 21:58:12;;;;;;;0.00;0.00;;;;;;;19.39;23.29;103488.03;10542942;28;20040;-76
2022/03/19 22:03:14;;;;;;;0.00;0.00;;;;;;;18.84;23.95;103473.22;10524871;28;20040;-76
2022/03/19 22:08:16;;;;;;;0.00;0.00;;;;;;;18.65;24.03;103471.72;10524375;28;20079;-77
2022/03/19 22:13:17;;;;;;;0.00;0.00;;;;;;;18.80;24.07;103471.34;10542300;28;20131;-77
2022/03/19 22:18:19;;;;;;;0.03;0.03;;;;;;;18.03;24.89;103467.03;10523879;28;20139;-77
2022/03/19 22:23:20;;;;;;;0.10;0.10;;;;;;;18.34;24.98;103470.72;10523937;28;20130;-76
2022/03/19 22:28:22;;;;;;;0.00;0.00;;;;;;;18.90;24.25;103467.31;10541989;28;20465;-77
2022/03/19 22:33:25;;;;;;;0.10;0.10;;;;;;;18.17;25.17;103461.41;10523521;28;20402;-75
2022/03/19 22:38:26;;;;;;;0.17;0.17;;;;;;;18.58;25.05;103453.22;10540286;28;20036;-76
2022/03/19 22:43:32;;;;;;;0.70;0.70;;;;;;;18.95;24.13;103457.94;10542329;28;20531;-75
2022/03/19 22:48:34;;;;;;;0.30;0.15;;;;;;;18.59;24.82;103445.41;10541439;28;20097;-77
2022/03/19 22:53:35;;;;;;;7.70;0.40;;;;;;;17.97;25.65;103443.34;10540822;28;20487;-76
2022/03/19 22:58:37;;;;;;;0.70;0.55;;;;;;;18.46;24.84;103441.53;10540544;28;20032;-76
2022/03/19 23:03:39;;;;;;;0.00;0.00;;;;;;;19.25;23.97;103433.59;10522433;28;20040;-77
2022/03/19 23:08:50;;;;;;;0.00;0.00;;;;;;;18.81;24.54;103435.66;10540293;28;20513;-76
2022/03/19 23:13:56;;;;;;;0.00;0.00;;;;;;;19.00;24.34;103422.41;10540591;28;20131;-77
2022/03/19 23:18:58;;;;;;;0.00;0.00;;;;;;;18.91;24.99;103416.84;10521868;28;20082;-75
2022/03/19 23:23:59;;;;;;;0.00;0.00;;;;;;;18.33;25.46;103415.84;10521972;28;20483;-75
2022/03/19 23:29:02;;;;;;;0.00;0.00;;;;;;;18.61;24.98;103412.44;10521794;28;20609;-78
2022/03/19 23:34:03;;;;;;;0.10;0.10;;;;;;;18.13;25.44;103407.34;10522212;28;20506;-77